sensor_id;sensor_type;location;lat;lon;timestamp;temperature;humidity
46754;DHT22;32500;50.620;3.400;2023-08-20T00:01:23;21.30;89.30
46754;DHT22;32500;50.620;3.400;2023-08-20T00:03:51;21.30;89.60
46754;DHT22;32500;50.620;3.400;2023-08-20T00:06:17;21.30;89.60
46754;DHT22;32500;50.620;3.400;2023-08-20T00:08:43;21.30;89.60
46754;DHT22;32500;50.620;3.400;2023-08-20T00:11:08;21.20;89.70
46754;DHT22;32500;50.620;3.400;2023-08-20T00:13:35;21.20;89.70
46754;DHT22;32500;50.620;3.400;2023-08-20T00:16:01;21.20;89.90
46754;DHT22;32500;50.620;3.400;2023-08-20T00:18:27;21.20;90.00
46754;DHT22;32500;50.620;3.400;2023-08-20T00:20:54;21.20;89.90
46754;DHT22;32500;50.620;3.400;2023-08-20T00:23:20;21.20;89.90
46754;DHT22;32500;50.620;3.400;2023-08-20T00:25:46;21.10;90.00
46754;DHT22;32500;50.620;3.400;2023-08-20T00:28:11;21.10;90.00
46754;DHT22;32500;50.620;3.400;2023-08-20T00:30:37;21.10;90.00
46754;DHT22;32500;50.620;3.400;2023-08-20T00:33:02;21.00;90.00
46754;DHT22;32500;50.620;3.400;2023-08-20T00:35:28;21.00;90.00
46754;DHT22;32500;50.620;3.400;2023-08-20T00:37:54;21.00;90.00
46754;DHT22;32500;50.620;3.400;2023-08-20T00:40:19;21.00;90.20
46754;DHT22;32500;50.620;3.400;2023-08-20T00:42:45;21.00;90.20
46754;DHT22;32500;50.620;3.400;2023-08-20T00:45:10;21.00;90.10
46754;DHT22;32500;50.620;3.400;2023-08-20T00:47:37;21.00;90.20
46754;DHT22;32500;50.620;3.400;2023-08-20T00:50:03;20.90;90.00
46754;DHT22;32500;50.620;3.400;2023-08-20T00:52:33;20.90;90.10
46754;DHT22;32500;50.620;3.400;2023-08-20T00:54:59;20.90;90.20
46754;DHT22;32500;50.620;3.400;2023-08-20T00:57:25;21.00;90.20
46754;DHT22;32500;50.620;3.400;2023-08-20T00:59:52;20.90;90.00
46754;DHT22;32500;50.620;3.400;2023-08-20T01:02:20;20.90;90.30
46754;DHT22;32500;50.620;3.400;2023-08-20T01:04:47;20.90;90.30
46754;DHT22;32500;50.620;3.400;2023-08-20T01:12:41;20.90;90.20
46754;DHT22;32500;50.620;3.400;2023-08-20T01:15:07;20.90;90.20
46754;DHT22;32500;50.620;3.400;2023-08-20T01:17:41;20.80;90.20
46754;DHT22;32500;50.620;3.400;2023-08-20T01:20:09;20.80;90.40
46754;DHT22;32500;50.620;3.400;2023-08-20T01:28:27;20.80;90.30
46754;DHT22;32500;50.620;3.400;2023-08-20T01:30:56;20.70;90.40
46754;DHT22;32500;50.620;3.400;2023-08-20T01:33:23;20.70;90.40
46754;DHT22;32500;50.620;3.400;2023-08-20T01:35:50;20.70;90.60
46754;DHT22;32500;50.620;3.400;2023-08-20T01:38:16;20.70;90.50
46754;DHT22;32500;50.620;3.400;2023-08-20T01:40:41;20.70;90.40
46754;DHT22;32500;50.620;3.400;2023-08-20T01:43:07;20.60;90.60
46754;DHT22;32500;50.620;3.400;2023-08-20T01:45:33;20.60;90.40
46754;DHT22;32500;50.620;3.400;2023-08-20T01:47:58;20.60;90.40
46754;DHT22;32500;50.620;3.400;2023-08-20T01:50:24;20.60;90.60
46754;DHT22;32500;50.620;3.400;2023-08-20T01:52:49;20.60;90.50
46754;DHT22;32500;50.620;3.400;2023-08-20T01:55:15;20.60;90.50
46754;DHT22;32500;50.620;3.400;2023-08-20T01:57:41;20.50;90.60
46754;DHT22;32500;50.620;3.400;2023-08-20T02:00:07;20.50;90.60
46754;DHT22;32500;50.620;3.400;2023-08-20T02:02:33;20.50;90.60
46754;DHT22;32500;50.620;3.400;2023-08-20T02:04:59;20.40;90.70
46754;DHT22;32500;50.620;3.400;2023-08-20T02:07:25;20.50;91.10
46754;DHT22;32500;50.620;3.400;2023-08-20T02:09:51;20.40;90.50
46754;DHT22;32500;50.620;3.400;2023-08-20T02:12:17;20.40;90.80
46754;DHT22;32500;50.620;3.400;2023-08-20T02:14:42;20.40;90.70
46754;DHT22;32500;50.620;3.400;2023-08-20T02:17:08;20.40;90.60
46754;DHT22;32500;50.620;3.400;2023-08-20T02:19:34;20.40;91.10
46754;DHT22;32500;50.620;3.400;2023-08-20T02:21:59;20.40;90.90
46754;DHT22;32500;50.620;3.400;2023-08-20T02:24:25;20.30;90.60
46754;DHT22;32500;50.620;3.400;2023-08-20T02:26:50;20.30;91.00
46754;DHT22;32500;50.620;3.400;2023-08-20T02:29:16;20.30;90.70
46754;DHT22;32500;50.620;3.400;2023-08-20T02:31:42;20.20;90.80
46754;DHT22;32500;50.620;3.400;2023-08-20T02:34:07;20.20;90.80
46754;DHT22;32500;50.620;3.400;2023-08-20T02:36:33;20.20;90.80
46754;DHT22;32500;50.620;3.400;2023-08-20T02:38:58;20.20;90.90
46754;DHT22;32500;50.620;3.400;2023-08-20T02:41:24;20.10;90.80
46754;DHT22;32500;50.620;3.400;2023-08-20T02:43:49;20.10;90.90
46754;DHT22;32500;50.620;3.400;2023-08-20T02:46:15;20.10;90.80
46754;DHT22;32500;50.620;3.400;2023-08-20T02:48:41;20.10;90.90
46754;DHT22;32500;50.620;3.400;2023-08-20T02:51:06;20.10;90.90
46754;DHT22;32500;50.620;3.400;2023-08-20T02:53:32;20.10;91.00
46754;DHT22;32500;50.620;3.400;2023-08-20T02:55:58;20.10;90.90
46754;DHT22;32500;50.620;3.400;2023-08-20T02:58:23;20.00;90.90
46754;DHT22;32500;50.620;3.400;2023-08-20T03:00:49;20.10;90.90
46754;DHT22;32500;50.620;3.400;2023-08-20T03:03:15;20.00;91.00
46754;DHT22;32500;50.620;3.400;2023-08-20T03:05:42;20.00;90.90
46754;DHT22;32500;50.620;3.400;2023-08-20T03:08:07;20.00;90.90
46754;DHT22;32500;50.620;3.400;2023-08-20T03:10:34;20.00;90.90
46754;DHT22;32500;50.620;3.400;2023-08-20T03:13:00;20.00;91.00
46754;DHT22;32500;50.620;3.400;2023-08-20T03:15:27;20.00;91.10
46754;DHT22;32500;50.620;3.400;2023-08-20T03:17:53;20.00;91.00
46754;DHT22;32500;50.620;3.400;2023-08-20T03:20:18;20.00;90.90
46754;DHT22;32500;50.620;3.400;2023-08-20T03:22:44;19.90;91.00
46754;DHT22;32500;50.620;3.400;2023-08-20T03:25:09;19.90;91.30
46754;DHT22;32500;50.620;3.400;2023-08-20T03:27:35;20.00;91.20
46754;DHT22;32500;50.620;3.400;2023-08-20T03:30:01;19.90;91.00
46754;DHT22;32500;50.620;3.400;2023-08-20T03:32:27;20.00;91.10
46754;DHT22;32500;50.620;3.400;2023-08-20T03:34:52;19.90;90.90
46754;DHT22;32500;50.620;3.400;2023-08-20T03:37:19;19.90;91.30
46754;DHT22;32500;50.620;3.400;2023-08-20T03:39:45;19.90;91.20
46754;DHT22;32500;50.620;3.400;2023-08-20T03:42:10;19.90;90.80
46754;DHT22;32500;50.620;3.400;2023-08-20T03:44:36;19.90;90.80
46754;DHT22;32500;50.620;3.400;2023-08-20T03:47:02;19.90;91.60
46754;DHT22;32500;50.620;3.400;2023-08-20T03:49:27;19.90;91.30
46754;DHT22;32500;50.620;3.400;2023-08-20T03:51:53;19.90;91.20
46754;DHT22;32500;50.620;3.400;2023-08-20T03:54:19;19.90;91.10
46754;DHT22;32500;50.620;3.400;2023-08-20T03:56:45;19.90;91.10
46754;DHT22;32500;50.620;3.400;2023-08-20T03:59:11;19.90;90.90
46754;DHT22;32500;50.620;3.400;2023-08-20T04:01:37;19.90;91.30
46754;DHT22;32500;50.620;3.400;2023-08-20T04:04:03;19.90;92.00
46754;DHT22;32500;50.620;3.400;2023-08-20T04:06:29;19.90;91.90
46754;DHT22;32500;50.620;3.400;2023-08-20T04:08:55;19.90;91.10
46754;DHT22;32500;50.620;3.400;2023-08-20T04:11:20;19.90;91.80
46754;DHT22;32500;50.620;3.400;2023-08-20T04:13:46;19.90;92.20
46754;DHT22;32500;50.620;3.400;2023-08-20T04:16:12;19.90;91.40
46754;DHT22;32500;50.620;3.400;2023-08-20T04:18:39;19.90;91.70
46754;DHT22;32500;50.620;3.400;2023-08-20T04:21:05;19.90;92.60
46754;DHT22;32500;50.620;3.400;2023-08-20T04:23:30;19.90;91.20
46754;DHT22;32500;50.620;3.400;2023-08-20T04:25:56;19.90;91.70
46754;DHT22;32500;50.620;3.400;2023-08-20T04:28:22;19.90;91.90
46754;DHT22;32500;50.620;3.400;2023-08-20T04:30:47;19.90;91.60
46754;DHT22;32500;50.620;3.400;2023-08-20T04:33:14;19.90;91.40
46754;DHT22;32500;50.620;3.400;2023-08-20T04:35:40;19.80;91.60
46754;DHT22;32500;50.620;3.400;2023-08-20T04:38:05;19.80;91.60
46754;DHT22;32500;50.620;3.400;2023-08-20T04:40:31;19.80;92.20
46754;DHT22;32500;50.620;3.400;2023-08-20T04:42:57;19.80;92.10
46754;DHT22;32500;50.620;3.400;2023-08-20T04:45:22;19.80;91.10
46754;DHT22;32500;50.620;3.400;2023-08-20T04:47:48;19.80;92.60
46754;DHT22;32500;50.620;3.400;2023-08-20T04:50:14;19.80;91.70
46754;DHT22;32500;50.620;3.400;2023-08-20T04:52:39;19.80;91.80
46754;DHT22;32500;50.620;3.400;2023-08-20T04:55:06;19.70;91.20
46754;DHT22;32500;50.620;3.400;2023-08-20T04:57:33;19.70;91.40
46754;DHT22;32500;50.620;3.400;2023-08-20T04:59:58;19.70;91.80
46754;DHT22;32500;50.620;3.400;2023-08-20T05:02:24;19.70;92.20
46754;DHT22;32500;50.620;3.400;2023-08-20T05:04:50;19.70;91.40
46754;DHT22;32500;50.620;3.400;2023-08-20T05:07:16;19.70;91.70
46754;DHT22;32500;50.620;3.400;2023-08-20T05:09:41;19.60;92.10
46754;DHT22;32500;50.620;3.400;2023-08-20T05:12:07;19.60;91.80
46754;DHT22;32500;50.620;3.400;2023-08-20T05:14:33;19.60;91.80
46754;DHT22;32500;50.620;3.400;2023-08-20T05:16:58;19.60;91.60
46754;DHT22;32500;50.620;3.400;2023-08-20T05:19:24;19.60;91.90
46754;DHT22;32500;50.620;3.400;2023-08-20T05:21:49;19.60;91.30
46754;DHT22;32500;50.620;3.400;2023-08-20T05:24:15;19.50;91.40
46754;DHT22;32500;50.620;3.400;2023-08-20T05:26:41;19.50;91.70
46754;DHT22;32500;50.620;3.400;2023-08-20T05:29:06;19.50;91.60
46754;DHT22;32500;50.620;3.400;2023-08-20T05:31:32;19.50;92.60
46754;DHT22;32500;50.620;3.400;2023-08-20T05:33:57;19.50;91.30
46754;DHT22;32500;50.620;3.400;2023-08-20T05:36:23;19.60;91.80
46754;DHT22;32500;50.620;3.400;2023-08-20T05:38:49;19.50;91.70
46754;DHT22;32500;50.620;3.400;2023-08-20T05:41:14;19.50;92.30
46754;DHT22;32500;50.620;3.400;2023-08-20T05:43:40;19.50;91.30
46754;DHT22;32500;50.620;3.400;2023-08-20T05:46:06;19.50;92.00
46754;DHT22;32500;50.620;3.400;2023-08-20T05:48:31;19.50;91.60
46754;DHT22;32500;50.620;3.400;2023-08-20T05:50:57;19.50;91.60
46754;DHT22;32500;50.620;3.400;2023-08-20T05:53:23;19.50;90.80
46754;DHT22;32500;50.620;3.400;2023-08-20T05:55:49;19.50;91.10
46754;DHT22;32500;50.620;3.400;2023-08-20T05:58:14;19.50;91.20
46754;DHT22;32500;50.620;3.400;2023-08-20T06:00:40;19.50;90.90
46754;DHT22;32500;50.620;3.400;2023-08-20T06:03:06;19.50;90.90
46754;DHT22;32500;50.620;3.400;2023-08-20T06:05:33;19.50;91.30
46754;DHT22;32500;50.620;3.400;2023-08-20T06:07:59;19.60;90.90
46754;DHT22;32500;50.620;3.400;2023-08-20T06:10:24;19.60;91.40
46754;DHT22;32500;50.620;3.400;2023-08-20T06:12:50;19.60;91.20
46754;DHT22;32500;50.620;3.400;2023-08-20T06:15:16;19.60;91.00
46754;DHT22;32500;50.620;3.400;2023-08-20T06:17:41;19.60;90.70
46754;DHT22;32500;50.620;3.400;2023-08-20T06:20:07;19.60;90.80
46754;DHT22;32500;50.620;3.400;2023-08-20T06:22:34;19.60;90.80
46754;DHT22;32500;50.620;3.400;2023-08-20T06:24:59;19.70;90.60
46754;DHT22;32500;50.620;3.400;2023-08-20T06:27:25;19.70;90.70
46754;DHT22;32500;50.620;3.400;2023-08-20T06:29:51;19.70;90.50
46754;DHT22;32500;50.620;3.400;2023-08-20T06:32:16;19.70;90.70
46754;DHT22;32500;50.620;3.400;2023-08-20T06:34:42;19.80;90.90
46754;DHT22;32500;50.620;3.400;2023-08-20T06:37:08;19.80;90.60
46754;DHT22;32500;50.620;3.400;2023-08-20T06:39:34;19.80;90.40
46754;DHT22;32500;50.620;3.400;2023-08-20T06:41:59;19.80;90.60
46754;DHT22;32500;50.620;3.400;2023-08-20T06:44:25;19.90;90.80
46754;DHT22;32500;50.620;3.400;2023-08-20T06:46:51;19.90;90.50
46754;DHT22;32500;50.620;3.400;2023-08-20T06:49:17;19.90;90.50
46754;DHT22;32500;50.620;3.400;2023-08-20T06:51:42;19.90;90.90
46754;DHT22;32500;50.620;3.400;2023-08-20T06:54:08;20.00;91.60
46754;DHT22;32500;50.620;3.400;2023-08-20T06:56:33;20.00;92.10
46754;DHT22;32500;50.620;3.400;2023-08-20T06:59:00;20.10;90.90
46754;DHT22;32500;50.620;3.400;2023-08-20T07:01:25;20.10;91.40
46754;DHT22;32500;50.620;3.400;2023-08-20T07:03:51;20.10;91.70
46754;DHT22;32500;50.620;3.400;2023-08-20T07:06:17;20.20;91.60
46754;DHT22;32500;50.620;3.400;2023-08-20T07:08:44;20.20;92.10
46754;DHT22;32500;50.620;3.400;2023-08-20T07:11:09;20.30;91.50
46754;DHT22;32500;50.620;3.400;2023-08-20T07:13:35;20.30;92.40
46754;DHT22;32500;50.620;3.400;2023-08-20T07:16:01;20.40;92.20
46754;DHT22;32500;50.620;3.400;2023-08-20T07:18:27;20.40;91.30
46754;DHT22;32500;50.620;3.400;2023-08-20T07:20:52;20.40;92.30
46754;DHT22;32500;50.620;3.400;2023-08-20T07:23:18;20.40;90.90
46754;DHT22;32500;50.620;3.400;2023-08-20T07:25:43;20.40;90.20
46754;DHT22;32500;50.620;3.400;2023-08-20T07:28:12;20.50;92.00
46754;DHT22;32500;50.620;3.400;2023-08-20T07:30:38;20.50;90.30
46754;DHT22;32500;50.620;3.400;2023-08-20T07:33:06;20.50;90.00
46754;DHT22;32500;50.620;3.400;2023-08-20T07:35:32;20.50;90.80
46754;DHT22;32500;50.620;3.400;2023-08-20T07:37:58;20.60;91.30
46754;DHT22;32500;50.620;3.400;2023-08-20T07:40:23;20.60;90.70
46754;DHT22;32500;50.620;3.400;2023-08-20T07:42:49;20.60;89.80
46754;DHT22;32500;50.620;3.400;2023-08-20T07:45:16;20.60;90.00
46754;DHT22;32500;50.620;3.400;2023-08-20T07:47:41;20.70;90.20
46754;DHT22;32500;50.620;3.400;2023-08-20T07:50:07;20.70;90.10
46754;DHT22;32500;50.620;3.400;2023-08-20T07:52:33;20.80;90.90
46754;DHT22;32500;50.620;3.400;2023-08-20T07:54:59;20.80;90.90
46754;DHT22;32500;50.620;3.400;2023-08-20T07:57:25;20.90;90.90
46754;DHT22;32500;50.620;3.400;2023-08-20T07:59:51;20.90;89.10
46754;DHT22;32500;50.620;3.400;2023-08-20T08:02:17;20.90;90.00
46754;DHT22;32500;50.620;3.400;2023-08-20T08:04:43;21.00;90.90
46754;DHT22;32500;50.620;3.400;2023-08-20T08:07:09;21.00;90.00
46754;DHT22;32500;50.620;3.400;2023-08-20T08:09:35;21.00;90.10
46754;DHT22;32500;50.620;3.400;2023-08-20T08:12:01;21.10;88.90
46754;DHT22;32500;50.620;3.400;2023-08-20T08:14:26;21.10;88.70
46754;DHT22;32500;50.620;3.400;2023-08-20T08:16:52;21.10;89.50
46754;DHT22;32500;50.620;3.400;2023-08-20T08:19:18;21.10;89.50
46754;DHT22;32500;50.620;3.400;2023-08-20T08:21:46;21.10;88.30
46754;DHT22;32500;50.620;3.400;2023-08-20T08:24:12;21.20;90.60
46754;DHT22;32500;50.620;3.400;2023-08-20T08:26:38;21.20;88.20
46754;DHT22;32500;50.620;3.400;2023-08-20T08:29:05;21.20;87.80
46754;DHT22;32500;50.620;3.400;2023-08-20T08:31:31;21.20;89.90
46754;DHT22;32500;50.620;3.400;2023-08-20T08:33:57;21.30;90.20
46754;DHT22;32500;50.620;3.400;2023-08-20T08:36:23;21.40;91.90
46754;DHT22;32500;50.620;3.400;2023-08-20T08:38:53;21.40;91.40
46754;DHT22;32500;50.620;3.400;2023-08-20T08:41:22;21.50;91.50
46754;DHT22;32500;50.620;3.400;2023-08-20T08:43:50;21.50;90.10
46754;DHT22;32500;50.620;3.400;2023-08-20T08:46:17;21.50;88.40
46754;DHT22;32500;50.620;3.400;2023-08-20T08:48:44;21.50;88.50
46754;DHT22;32500;50.620;3.400;2023-08-20T08:51:12;21.60;90.70
46754;DHT22;32500;50.620;3.400;2023-08-20T08:53:37;21.60;91.30
46754;DHT22;32500;50.620;3.400;2023-08-20T08:56:03;21.70;91.00
46754;DHT22;32500;50.620;3.400;2023-08-20T08:58:31;21.70;91.40
46754;DHT22;32500;50.620;3.400;2023-08-20T09:00:57;21.80;90.30
46754;DHT22;32500;50.620;3.400;2023-08-20T09:03:23;21.80;91.30
46754;DHT22;32500;50.620;3.400;2023-08-20T09:05:54;21.80;90.90
46754;DHT22;32500;50.620;3.400;2023-08-20T09:08:26;21.90;91.30
46754;DHT22;32500;50.620;3.400;2023-08-20T09:10:55;21.90;90.70
46754;DHT22;32500;50.620;3.400;2023-08-20T09:13:33;22.00;90.90
46754;DHT22;32500;50.620;3.400;2023-08-20T09:15:59;22.00;90.70
46754;DHT22;32500;50.620;3.400;2023-08-20T09:18:25;22.00;90.90
46754;DHT22;32500;50.620;3.400;2023-08-20T09:20:50;22.00;89.50
46754;DHT22;32500;50.620;3.400;2023-08-20T09:23:16;22.00;87.20
46754;DHT22;32500;50.620;3.400;2023-08-20T09:25:43;22.00;89.60
46754;DHT22;32500;50.620;3.400;2023-08-20T09:28:09;22.10;89.50
46754;DHT22;32500;50.620;3.400;2023-08-20T09:30:35;22.20;90.70
46754;DHT22;32500;50.620;3.400;2023-08-20T09:33:10;22.20;90.90
46754;DHT22;32500;50.620;3.400;2023-08-20T09:35:36;22.30;90.60
46754;DHT22;32500;50.620;3.400;2023-08-20T09:38:05;22.30;90.40
46754;DHT22;32500;50.620;3.400;2023-08-20T09:40:31;22.40;90.10
46754;DHT22;32500;50.620;3.400;2023-08-20T09:42:57;22.40;90.00
46754;DHT22;32500;50.620;3.400;2023-08-20T09:45:28;22.40;90.40
46754;DHT22;32500;50.620;3.400;2023-08-20T09:47:58;22.50;89.70
46754;DHT22;32500;50.620;3.400;2023-08-20T09:50:25;22.50;89.50
46754;DHT22;32500;50.620;3.400;2023-08-20T09:52:58;22.50;89.90
46754;DHT22;32500;50.620;3.400;2023-08-20T09:55:45;22.50;90.30
46754;DHT22;32500;50.620;3.400;2023-08-20T09:58:11;22.50;87.40
46754;DHT22;32500;50.620;3.400;2023-08-20T10:00:37;22.60;88.30
46754;DHT22;32500;50.620;3.400;2023-08-20T10:03:04;22.50;86.70
46754;DHT22;32500;50.620;3.400;2023-08-20T10:05:29;22.60;88.80
46754;DHT22;32500;50.620;3.400;2023-08-20T10:07:58;22.70;87.90
46754;DHT22;32500;50.620;3.400;2023-08-20T10:10:24;22.60;87.10
46754;DHT22;32500;50.620;3.400;2023-08-20T10:12:51;22.70;86.90
46754;DHT22;32500;50.620;3.400;2023-08-20T10:15:17;22.70;85.80
46754;DHT22;32500;50.620;3.400;2023-08-20T10:17:44;22.70;85.30
46754;DHT22;32500;50.620;3.400;2023-08-20T10:20:13;22.70;85.10
46754;DHT22;32500;50.620;3.400;2023-08-20T10:22:41;22.70;87.30
46754;DHT22;32500;50.620;3.400;2023-08-20T10:27:36;22.90;89.20
46754;DHT22;32500;50.620;3.400;2023-08-20T10:30:11;22.90;88.00
46754;DHT22;32500;50.620;3.400;2023-08-20T10:35:09;23.00;87.20
46754;DHT22;32500;50.620;3.400;2023-08-20T10:37:35;23.00;87.10
46754;DHT22;32500;50.620;3.400;2023-08-20T10:40:03;23.00;86.80
46754;DHT22;32500;50.620;3.400;2023-08-20T10:42:29;23.10;86.80
46754;DHT22;32500;50.620;3.400;2023-08-20T10:44:59;23.10;88.10
46754;DHT22;32500;50.620;3.400;2023-08-20T10:47:26;23.10;85.60
46754;DHT22;32500;50.620;3.400;2023-08-20T10:50:00;23.10;85.00
46754;DHT22;32500;50.620;3.400;2023-08-20T10:52:26;23.20;87.90
46754;DHT22;32500;50.620;3.400;2023-08-20T10:54:52;23.20;87.60
46754;DHT22;32500;50.620;3.400;2023-08-20T10:57:18;23.20;87.70
46754;DHT22;32500;50.620;3.400;2023-08-20T10:59:56;23.30;87.90
46754;DHT22;32500;50.620;3.400;2023-08-20T11:02:23;23.30;85.80
46754;DHT22;32500;50.620;3.400;2023-08-20T11:04:51;23.30;81.20
46754;DHT22;32500;50.620;3.400;2023-08-20T11:07:18;23.40;77.60
46754;DHT22;32500;50.620;3.400;2023-08-20T11:09:45;23.40;74.50
46754;DHT22;32500;50.620;3.400;2023-08-20T11:12:14;23.40;71.80
46754;DHT22;32500;50.620;3.400;2023-08-20T11:14:40;23.40;75.60
46754;DHT22;32500;50.620;3.400;2023-08-20T11:17:07;23.40;69.20
46754;DHT22;32500;50.620;3.400;2023-08-20T11:19:33;23.50;72.50
46754;DHT22;32500;50.620;3.400;2023-08-20T11:21:59;23.50;76.00
46754;DHT22;32500;50.620;3.400;2023-08-20T11:24:29;23.60;74.50
46754;DHT22;32500;50.620;3.400;2023-08-20T11:26:54;23.60;74.60
46754;DHT22;32500;50.620;3.400;2023-08-20T11:29:20;23.60;75.60
46754;DHT22;32500;50.620;3.400;2023-08-20T11:31:47;23.70;75.80
46754;DHT22;32500;50.620;3.400;2023-08-20T11:34:13;23.70;78.50
46754;DHT22;32500;50.620;3.400;2023-08-20T11:36:39;23.80;79.30
46754;DHT22;32500;50.620;3.400;2023-08-20T11:39:06;23.80;79.90
46754;DHT22;32500;50.620;3.400;2023-08-20T11:41:35;23.90;79.80
46754;DHT22;32500;50.620;3.400;2023-08-20T11:44:01;23.90;80.10
46754;DHT22;32500;50.620;3.400;2023-08-20T11:46:29;24.00;79.80
46754;DHT22;32500;50.620;3.400;2023-08-20T11:49:05;24.10;80.80
46754;DHT22;32500;50.620;3.400;2023-08-20T11:51:39;24.10;79.60
46754;DHT22;32500;50.620;3.400;2023-08-20T11:54:13;24.10;79.70
46754;DHT22;32500;50.620;3.400;2023-08-20T11:56:48;24.20;80.20
46754;DHT22;32500;50.620;3.400;2023-08-20T11:59:15;24.20;79.70
46754;DHT22;32500;50.620;3.400;2023-08-20T12:01:41;24.20;80.00
46754;DHT22;32500;50.620;3.400;2023-08-20T12:04:09;24.20;79.30
46754;DHT22;32500;50.620;3.400;2023-08-20T12:06:38;24.20;79.80
46754;DHT22;32500;50.620;3.400;2023-08-20T12:09:23;24.30;79.90
46754;DHT22;32500;50.620;3.400;2023-08-20T12:11:52;24.30;80.70
46754;DHT22;32500;50.620;3.400;2023-08-20T12:14:21;24.30;82.40
46754;DHT22;32500;50.620;3.400;2023-08-20T12:16:47;24.40;81.00
46754;DHT22;32500;50.620;3.400;2023-08-20T12:19:13;24.40;80.60
46754;DHT22;32500;50.620;3.400;2023-08-20T12:21:41;24.40;81.10
46754;DHT22;32500;50.620;3.400;2023-08-20T12:24:09;24.50;80.20
46754;DHT22;32500;50.620;3.400;2023-08-20T12:26:38;24.40;80.10
46754;DHT22;32500;50.620;3.400;2023-08-20T12:29:05;24.50;77.90
46754;DHT22;32500;50.620;3.400;2023-08-20T12:31:31;24.60;78.40
46754;DHT22;32500;50.620;3.400;2023-08-20T12:33:57;24.60;78.80
46754;DHT22;32500;50.620;3.400;2023-08-20T12:36:22;24.60;76.30
46754;DHT22;32500;50.620;3.400;2023-08-20T12:38:48;24.60;73.70
46754;DHT22;32500;50.620;3.400;2023-08-20T12:41:14;24.70;72.30
46754;DHT22;32500;50.620;3.400;2023-08-20T12:43:40;24.60;70.80
46754;DHT22;32500;50.620;3.400;2023-08-20T12:46:06;24.60;69.70
46754;DHT22;32500;50.620;3.400;2023-08-20T12:48:32;24.60;67.30
46754;DHT22;32500;50.620;3.400;2023-08-20T12:50:58;24.70;65.20
46754;DHT22;32500;50.620;3.400;2023-08-20T12:53:24;24.70;65.30
46754;DHT22;32500;50.620;3.400;2023-08-20T12:55:49;24.70;67.00
46754;DHT22;32500;50.620;3.400;2023-08-20T12:58:15;24.70;63.60
46754;DHT22;32500;50.620;3.400;2023-08-20T13:00:41;24.70;60.00
46754;DHT22;32500;50.620;3.400;2023-08-20T13:03:07;24.70;65.00
46754;DHT22;32500;50.620;3.400;2023-08-20T13:05:33;24.70;61.10
46754;DHT22;32500;50.620;3.400;2023-08-20T13:07:59;24.80;66.00
46754;DHT22;32500;50.620;3.400;2023-08-20T13:10:25;24.80;60.20
46754;DHT22;32500;50.620;3.400;2023-08-20T13:12:52;24.80;60.00
46754;DHT22;32500;50.620;3.400;2023-08-20T13:15:22;24.80;56.10
46754;DHT22;32500;50.620;3.400;2023-08-20T13:17:49;24.80;55.50
46754;DHT22;32500;50.620;3.400;2023-08-20T13:20:15;24.80;55.60
46754;DHT22;32500;50.620;3.400;2023-08-20T13:22:46;24.80;56.60
46754;DHT22;32500;50.620;3.400;2023-08-20T13:25:12;24.90;56.80
46754;DHT22;32500;50.620;3.400;2023-08-20T13:27:37;24.90;55.50
46754;DHT22;32500;50.620;3.400;2023-08-20T13:30:03;25.00;55.60
46754;DHT22;32500;50.620;3.400;2023-08-20T13:32:29;25.00;55.30
46754;DHT22;32500;50.620;3.400;2023-08-20T13:34:55;25.00;55.30
46754;DHT22;32500;50.620;3.400;2023-08-20T13:37:20;25.00;55.40
46754;DHT22;32500;50.620;3.400;2023-08-20T13:39:46;25.10;56.50
46754;DHT22;32500;50.620;3.400;2023-08-20T13:42:12;25.20;56.90
46754;DHT22;32500;50.620;3.400;2023-08-20T13:44:37;25.30;57.00
46754;DHT22;32500;50.620;3.400;2023-08-20T13:47:03;25.30;56.30
46754;DHT22;32500;50.620;3.400;2023-08-20T13:49:28;25.40;60.00
46754;DHT22;32500;50.620;3.400;2023-08-20T13:51:54;25.40;58.00
46754;DHT22;32500;50.620;3.400;2023-08-20T13:54:20;25.50;60.20
46754;DHT22;32500;50.620;3.400;2023-08-20T13:56:45;25.50;56.20
46754;DHT22;32500;50.620;3.400;2023-08-20T13:59:11;25.50;55.90
46754;DHT22;32500;50.620;3.400;2023-08-20T14:01:37;25.40;55.80
46754;DHT22;32500;50.620;3.400;2023-08-20T14:04:02;25.50;56.20
46754;DHT22;32500;50.620;3.400;2023-08-20T14:06:28;25.50;55.90
46754;DHT22;32500;50.620;3.400;2023-08-20T14:08:54;25.60;58.20
46754;DHT22;32500;50.620;3.400;2023-08-20T14:11:20;25.70;61.30
46754;DHT22;32500;50.620;3.400;2023-08-20T14:13:47;25.70;56.00
46754;DHT22;32500;50.620;3.400;2023-08-20T14:16:13;25.70;55.40
46754;DHT22;32500;50.620;3.400;2023-08-20T14:18:38;25.70;57.40
46754;DHT22;32500;50.620;3.400;2023-08-20T14:21:04;25.70;55.50
46754;DHT22;32500;50.620;3.400;2023-08-20T14:23:29;25.70;56.50
46754;DHT22;32500;50.620;3.400;2023-08-20T14:25:56;25.70;55.40
46754;DHT22;32500;50.620;3.400;2023-08-20T14:28:22;25.80;57.20
46754;DHT22;32500;50.620;3.400;2023-08-20T14:30:48;25.80;59.20
46754;DHT22;32500;50.620;3.400;2023-08-20T14:33:19;25.90;56.90
46754;DHT22;32500;50.620;3.400;2023-08-20T14:35:46;25.80;55.90
46754;DHT22;32500;50.620;3.400;2023-08-20T14:38:11;25.80;56.60
46754;DHT22;32500;50.620;3.400;2023-08-20T14:40:43;25.80;55.30
46754;DHT22;32500;50.620;3.400;2023-08-20T14:43:09;25.80;56.50
46754;DHT22;32500;50.620;3.400;2023-08-20T14:45:35;25.80;55.00
46754;DHT22;32500;50.620;3.400;2023-08-20T14:48:01;25.70;57.20
46754;DHT22;32500;50.620;3.400;2023-08-20T14:50:28;25.80;57.70
46754;DHT22;32500;50.620;3.400;2023-08-20T14:52:53;25.80;57.40
46754;DHT22;32500;50.620;3.400;2023-08-20T14:55:19;25.90;55.00
46754;DHT22;32500;50.620;3.400;2023-08-20T14:57:45;25.80;55.10
46754;DHT22;32500;50.620;3.400;2023-08-20T15:00:12;25.80;58.60
46754;DHT22;32500;50.620;3.400;2023-08-20T15:02:45;25.90;58.10
46754;DHT22;32500;50.620;3.400;2023-08-20T15:05:12;26.00;57.90
46754;DHT22;32500;50.620;3.400;2023-08-20T15:07:38;26.00;55.80
46754;DHT22;32500;50.620;3.400;2023-08-20T15:10:03;25.90;55.80
46754;DHT22;32500;50.620;3.400;2023-08-20T15:12:34;25.90;54.90
46754;DHT22;32500;50.620;3.400;2023-08-20T15:15:01;25.80;55.30
46754;DHT22;32500;50.620;3.400;2023-08-20T15:17:29;25.80;55.20
46754;DHT22;32500;50.620;3.400;2023-08-20T15:19:54;25.80;55.80
46754;DHT22;32500;50.620;3.400;2023-08-20T15:22:20;25.80;55.90
46754;DHT22;32500;50.620;3.400;2023-08-20T15:24:46;25.80;57.40
46754;DHT22;32500;50.620;3.400;2023-08-20T15:27:13;25.80;56.10
46754;DHT22;32500;50.620;3.400;2023-08-20T15:29:38;25.70;56.00
46754;DHT22;32500;50.620;3.400;2023-08-20T15:32:04;25.80;56.10
46754;DHT22;32500;50.620;3.400;2023-08-20T15:34:30;25.80;56.60
46754;DHT22;32500;50.620;3.400;2023-08-20T15:36:56;25.80;56.30
46754;DHT22;32500;50.620;3.400;2023-08-20T15:39:21;25.80;56.00
46754;DHT22;32500;50.620;3.400;2023-08-20T15:41:47;25.70;55.90